sensor_id;sensor_type;location;lat;lon;timestamp;pressure;altitude;pressure_sealevel;temperature;humidity
73870;BME280;64924;42.140;24.762;2023-02-12T00:01:15;100677.84;;;3.48;33.85
73870;BME280;64924;42.140;24.762;2023-02-12T00:03:41;100682.88;;;3.42;33.83
73870;BME280;64924;42.140;24.762;2023-02-12T00:06:08;100638.00;;;3.21;33.80
73870;BME280;64924;42.140;24.762;2023-02-12T00:08:35;100677.63;;;3.40;33.88
73870;BME280;64924;42.140;24.762;2023-02-12T00:11:12;100681.00;;;3.53;33.58
73870;BME280;64924;42.140;24.762;2023-02-12T00:13:38;100675.78;;;3.41;33.75
73870;BME280;64924;42.140;24.762;2023-02-12T00:16:09;100659.41;;;3.55;33.63
73870;BME280;64924;42.140;24.762;2023-02-12T00:18:35;100668.19;;;3.57;33.52
73870;BME280;64924;42.140;24.762;2023-02-12T00:21:01;100676.88;;;3.49;33.58
73870;BME280;64924;42.140;24.762;2023-02-12T00:23:26;100632.13;;;3.27;33.57
73870;BME280;64924;42.140;24.762;2023-02-12T00:25:52;100659.28;;;3.45;33.63
73870;BME280;64924;42.140;24.762;2023-02-12T00:28:17;100657.75;;;3.31;33.83
73870;BME280;64924;42.140;24.762;2023-02-12T00:30:43;100662.34;;;3.41;33.44
73870;BME280;64924;42.140;24.762;2023-02-12T00:33:08;100643.19;;;3.45;32.67
73870;BME280;64924;42.140;24.762;2023-02-12T00:35:34;100645.97;;;3.55;32.63
73870;BME280;64924;42.140;24.762;2023-02-12T00:38:00;100623.28;;;3.48;32.33
73870;BME280;64924;42.140;24.762;2023-02-12T00:40:25;100609.75;;;3.38;32.24
73870;BME280;64924;42.140;24.762;2023-02-12T00:42:51;100628.09;;;3.65;32.20
73870;BME280;64924;42.140;24.762;2023-02-12T00:45:17;100622.47;;;3.68;31.92
73870;BME280;64924;42.140;24.762;2023-02-12T00:47:42;100631.09;;;3.72;32.08
73870;BME280;64924;42.140;24.762;2023-02-12T00:50:08;100614.94;;;3.83;31.67
73870;BME280;64924;42.140;24.762;2023-02-12T00:52:34;100619.81;;;3.89;31.72
73870;BME280;64924;42.140;24.762;2023-02-12T00:54:59;100615.97;;;4.02;31.44
73870;BME280;64924;42.140;24.762;2023-02-12T00:57:25;100603.56;;;3.90;31.61
73870;BME280;64924;42.140;24.762;2023-02-12T00:59:50;100553.72;;;3.65;31.54
73870;BME280;64924;42.140;24.762;2023-02-12T01:02:16;100595.81;;;3.97;31.49
73870;BME280;64924;42.140;24.762;2023-02-12T01:04:42;100594.72;;;3.99;31.37
73870;BME280;64924;42.140;24.762;2023-02-12T01:07:08;100600.56;;;4.05;31.17
73870;BME280;64924;42.140;24.762;2023-02-12T01:09:34;100591.94;;;4.11;30.72
73870;BME280;64924;42.140;24.762;2023-02-12T01:12:00;100586.78;;;3.98;30.41
73870;BME280;64924;42.140;24.762;2023-02-12T01:14:25;100590.53;;;4.07;30.53
73870;BME280;64924;42.140;24.762;2023-02-12T01:16:51;100601.28;;;4.07;30.54
73870;BME280;64924;42.140;24.762;2023-02-12T01:19:16;100582.00;;;4.01;30.14
73870;BME280;64924;42.140;24.762;2023-02-12T01:21:43;100545.19;;;3.81;30.14
73870;BME280;64924;42.140;24.762;2023-02-12T01:24:09;100569.78;;;3.97;30.25
73870;BME280;64924;42.140;24.762;2023-02-12T01:26:35;100573.03;;;4.22;29.83
73870;BME280;64924;42.140;24.762;2023-02-12T01:29:03;100559.66;;;4.11;29.82
73870;BME280;64924;42.140;24.762;2023-02-12T01:31:31;100550.50;;;4.13;29.89
73870;BME280;64924;42.140;24.762;2023-02-12T01:33:58;100566.69;;;4.23;30.14
73870;BME280;64924;42.140;24.762;2023-02-12T01:36:24;100572.66;;;4.26;30.27
73870;BME280;64924;42.140;24.762;2023-02-12T01:38:50;100568.84;;;4.29;30.31
73870;BME280;64924;42.140;24.762;2023-02-12T01:41:19;100563.25;;;4.42;29.99
73870;BME280;64924;42.140;24.762;2023-02-12T01:44:02;100561.75;;;4.28;29.99
73870;BME280;64924;42.140;24.762;2023-02-12T01:46:29;100555.00;;;4.13;30.12
73870;BME280;64924;42.140;24.762;2023-02-12T01:48:54;100564.63;;;4.06;30.24
73870;BME280;64924;42.140;24.762;2023-02-12T01:51:21;100558.69;;;4.12;30.03
73870;BME280;64924;42.140;24.762;2023-02-12T01:53:51;100561.09;;;4.15;30.20
73870;BME280;64924;42.140;24.762;2023-02-12T01:56:19;100560.59;;;4.21;30.04
73870;BME280;64924;42.140;24.762;2023-02-12T01:58:46;100566.41;;;4.26;29.79
73870;BME280;64924;42.140;24.762;2023-02-12T02:01:17;100566.03;;;4.30;29.51
73870;BME280;64924;42.140;24.762;2023-02-12T02:03:47;100548.78;;;4.33;29.64
73870;BME280;64924;42.140;24.762;2023-02-12T02:06:22;100556.06;;;4.52;29.33
73870;BME280;64924;42.140;24.762;2023-02-12T02:08:50;100549.66;;;4.43;29.53
73870;BME280;64924;42.140;24.762;2023-02-12T02:11:15;100538.19;;;4.41;29.35
73870;BME280;64924;42.140;24.762;2023-02-12T02:14:00;100550.22;;;4.47;29.28
73870;BME280;64924;42.140;24.762;2023-02-12T02:17:27;100556.28;;;4.69;28.92
73870;BME280;64924;42.140;24.762;2023-02-12T02:38:52;100573.31;;;4.49;28.85
73870;BME280;64924;42.140;24.762;2023-02-12T02:41:29;100570.94;;;4.56;28.57
73870;BME280;64924;42.140;24.762;2023-02-12T02:43:58;100576.84;;;4.40;28.69
73870;BME280;64924;42.140;24.762;2023-02-12T02:46:33;100571.81;;;4.56;28.63
73870;BME280;64924;42.140;24.762;2023-02-12T02:49:06;100560.72;;;4.50;28.98
73870;BME280;64924;42.140;24.762;2023-02-12T02:51:40;100561.41;;;4.42;29.17
73870;BME280;64924;42.140;24.762;2023-02-12T02:54:29;100554.34;;;4.41;29.20
73870;BME280;64924;42.140;24.762;2023-02-12T02:57:05;100535.59;;;4.30;29.48
73870;BME280;64924;42.140;24.762;2023-02-12T02:59:37;100580.00;;;4.55;29.62
73870;BME280;64924;42.140;24.762;2023-02-12T03:02:17;100558.28;;;4.47;29.92
73870;BME280;64924;42.140;24.762;2023-02-12T03:05:09;100565.22;;;4.40;29.96
73870;BME280;64924;42.140;24.762;2023-02-12T03:10:54;100524.69;;;4.31;29.79
73870;BME280;64924;42.140;24.762;2023-02-12T03:13:29;100576.91;;;4.59;29.80
73870;BME280;64924;42.140;24.762;2023-02-12T03:16:03;100569.50;;;4.52;29.75
73870;BME280;64924;42.140;24.762;2023-02-12T03:18:40;100582.88;;;4.63;29.84
73870;BME280;64924;42.140;24.762;2023-02-12T03:21:14;100563.91;;;4.64;29.53
73870;BME280;64924;42.140;24.762;2023-02-12T03:23:53;100561.81;;;4.68;29.54
73870;BME280;64924;42.140;24.762;2023-02-12T03:26:27;100563.31;;;4.61;29.63
73870;BME280;64924;42.140;24.762;2023-02-12T03:28:56;100564.19;;;4.61;29.54
73870;BME280;64924;42.140;24.762;2023-02-12T03:34:03;100562.84;;;4.77;29.41
73870;BME280;64924;42.140;24.762;2023-02-12T03:36:51;100560.41;;;4.74;29.48
73870;BME280;64924;42.140;24.762;2023-02-12T03:40:19;100558.72;;;4.73;29.14
73870;BME280;64924;42.140;24.762;2023-02-12T03:42:31;100511.16;;;4.43;29.36
73870;BME280;64924;42.140;24.762;2023-02-12T03:45:40;100557.84;;;4.72;29.01
73870;BME280;64924;42.140;24.762;2023-02-12T03:51:20;100563.91;;;4.64;29.76
73870;BME280;64924;42.140;24.762;2023-02-12T03:53:42;100496.31;;;4.18;29.79
73870;BME280;64924;42.140;24.762;2023-02-12T03:56:14;100557.94;;;4.61;29.62
73870;BME280;64924;42.140;24.762;2023-02-12T03:58:43;100555.94;;;4.53;29.65
73870;BME280;64924;42.140;24.762;2023-02-12T04:01:10;100537.75;;;4.36;29.65
73870;BME280;64924;42.140;24.762;2023-02-12T04:03:36;100561.88;;;4.57;29.71
73870;BME280;64924;42.140;24.762;2023-02-12T04:06:02;100571.25;;;4.62;29.66
73870;BME280;64924;42.140;24.762;2023-02-12T04:08:28;100561.22;;;4.64;29.84
73870;BME280;64924;42.140;24.762;2023-02-12T04:13:41;100558.78;;;4.61;30.39
73870;BME280;64924;42.140;24.762;2023-02-12T04:16:32;100567.63;;;4.83;30.16
73870;BME280;64924;42.140;24.762;2023-02-12T04:18:59;100567.59;;;4.63;30.62
73870;BME280;64924;42.140;24.762;2023-02-12T04:27:02;100576.88;;;4.90;29.52
73870;BME280;64924;42.140;24.762;2023-02-12T04:35:32;100573.47;;;4.88;29.33
73870;BME280;64924;42.140;24.762;2023-02-12T04:38:10;100587.69;;;4.99;29.34
73870;BME280;64924;42.140;24.762;2023-02-12T04:40:39;100557.19;;;4.89;29.35
73870;BME280;64924;42.140;24.762;2023-02-12T04:43:05;100567.13;;;4.98;29.17
73870;BME280;64924;42.140;24.762;2023-02-12T04:45:33;100574.97;;;5.11;28.96
73870;BME280;64924;42.140;24.762;2023-02-12T04:47:59;100585.34;;;5.16;28.79
73870;BME280;64924;42.140;24.762;2023-02-12T04:50:26;100541.59;;;4.93;28.76
73870;BME280;64924;42.140;24.762;2023-02-12T04:52:58;100572.69;;;5.07;28.94
73870;BME280;64924;42.140;24.762;2023-02-12T04:55:24;100579.38;;;5.12;28.75
73870;BME280;64924;42.140;24.762;2023-02-12T04:57:49;100577.38;;;5.14;29.00
73870;BME280;64924;42.140;24.762;2023-02-12T05:00:15;100588.72;;;5.08;29.25
73870;BME280;64924;42.140;24.762;2023-02-12T05:02:41;100574.41;;;5.08;29.27
73870;BME280;64924;42.140;24.762;2023-02-12T05:05:06;100589.00;;;5.24;29.29
73870;BME280;64924;42.140;24.762;2023-02-12T05:07:32;100588.75;;;5.18;29.24
73870;BME280;64924;42.140;24.762;2023-02-12T05:09:57;100573.84;;;5.14;28.96
73870;BME280;64924;42.140;24.762;2023-02-12T05:12:23;100587.44;;;5.12;29.25
73870;BME280;64924;42.140;24.762;2023-02-12T05:14:48;100606.59;;;5.19;29.23
73870;BME280;64924;42.140;24.762;2023-02-12T05:17:14;100617.22;;;5.20;29.52
73870;BME280;64924;42.140;24.762;2023-02-12T05:19:39;100615.25;;;5.22;29.63
73870;BME280;64924;42.140;24.762;2023-02-12T05:22:05;100627.44;;;5.26;29.46
73870;BME280;64924;42.140;24.762;2023-02-12T05:24:30;100629.69;;;5.21;29.57
73870;BME280;64924;42.140;24.762;2023-02-12T05:26:56;100634.13;;;5.32;29.49
73870;BME280;64924;42.140;24.762;2023-02-12T05:29:21;100621.59;;;5.21;29.32
73870;BME280;64924;42.140;24.762;2023-02-12T05:31:47;100617.66;;;5.25;30.07
73870;BME280;64924;42.140;24.762;2023-02-12T05:34:12;100603.59;;;5.22;30.04
73870;BME280;64924;42.140;24.762;2023-02-12T05:36:39;100616.53;;;5.28;29.94
73870;BME280;64924;42.140;24.762;2023-02-12T05:39:04;100614.84;;;5.36;30.24
73870;BME280;64924;42.140;24.762;2023-02-12T05:41:31;100613.41;;;5.32;30.38
73870;BME280;64924;42.140;24.762;2023-02-12T05:44:03;100613.69;;;5.29;30.11
73870;BME280;64924;42.140;24.762;2023-02-12T05:46:29;100626.63;;;5.35;30.32
73870;BME280;64924;42.140;24.762;2023-02-12T05:48:55;100613.97;;;5.26;30.58
73870;BME280;64924;42.140;24.762;2023-02-12T05:51:23;100633.16;;;5.43;30.14
73870;BME280;64924;42.140;24.762;2023-02-12T05:53:52;100642.81;;;5.45;30.10
73870;BME280;64924;42.140;24.762;2023-02-12T05:56:25;100587.59;;;5.20;29.98
73870;BME280;64924;42.140;24.762;2023-02-12T05:58:56;100634.75;;;5.55;29.63
73870;BME280;64924;42.140;24.762;2023-02-12T06:01:26;100638.97;;;5.57;29.72
73870;BME280;64924;42.140;24.762;2023-02-12T06:03:52;100617.28;;;5.40;30.08
73870;BME280;64924;42.140;24.762;2023-02-12T06:06:17;100648.94;;;5.57;29.80
73870;BME280;64924;42.140;24.762;2023-02-12T06:08:46;100630.06;;;5.66;29.79
73870;BME280;64924;42.140;24.762;2023-02-12T06:11:13;100630.63;;;5.51;29.90
73870;BME280;64924;42.140;24.762;2023-02-12T06:13:38;100629.22;;;5.66;29.76
73870;BME280;64924;42.140;24.762;2023-02-12T06:16:05;100625.25;;;5.70;29.91
73870;BME280;64924;42.140;24.762;2023-02-12T06:18:30;100615.56;;;5.58;30.00
73870;BME280;64924;42.140;24.762;2023-02-12T06:20:56;100643.28;;;5.79;30.13
73870;BME280;64924;42.140;24.762;2023-02-12T06:23:23;100640.31;;;5.82;30.15
73870;BME280;64924;42.140;24.762;2023-02-12T06:25:50;100627.84;;;5.91;30.02
73870;BME280;64924;42.140;24.762;2023-02-12T06:28:16;100630.56;;;5.91;30.02
73870;BME280;64924;42.140;24.762;2023-02-12T06:30:41;100630.28;;;5.94;30.13
73870;BME280;64924;42.140;24.762;2023-02-12T06:33:07;100643.59;;;6.05;30.23
73870;BME280;64924;42.140;24.762;2023-02-12T06:35:37;100618.31;;;6.06;29.99
73870;BME280;64924;42.140;24.762;2023-02-12T06:38:02;100651.25;;;6.19;30.17
73870;BME280;64924;42.140;24.762;2023-02-12T06:40:28;100631.38;;;6.11;30.11
73870;BME280;64924;42.140;24.762;2023-02-12T06:42:53;100648.97;;;6.24;30.10
73870;BME280;64924;42.140;24.762;2023-02-12T06:45:19;100600.00;;;6.00;29.90
73870;BME280;64924;42.140;24.762;2023-02-12T06:47:44;100658.31;;;6.40;30.02
73870;BME280;64924;42.140;24.762;2023-02-12T06:50:10;100643.13;;;6.38;30.22
73870;BME280;64924;42.140;24.762;2023-02-12T06:52:35;100615.91;;;6.22;30.21
73870;BME280;64924;42.140;24.762;2023-02-12T06:55:01;100653.19;;;6.56;30.41
73870;BME280;64924;42.140;24.762;2023-02-12T06:57:28;100653.16;;;6.65;29.77
73870;BME280;64924;42.140;24.762;2023-02-12T06:59:54;100625.34;;;6.55;29.74
73870;BME280;64924;42.140;24.762;2023-02-12T07:02:19;100657.38;;;6.78;29.93
73870;BME280;64924;42.140;24.762;2023-02-12T07:04:45;100655.91;;;6.93;29.63
73870;BME280;64924;42.140;24.762;2023-02-12T07:07:10;100668.38;;;7.03;29.88
73870;BME280;64924;42.140;24.762;2023-02-12T07:09:35;100680.28;;;7.11;29.92
73870;BME280;64924;42.140;24.762;2023-02-12T07:12:01;100660.06;;;7.15;29.90
73870;BME280;64924;42.140;24.762;2023-02-12T07:14:27;100669.13;;;7.23;30.02
73870;BME280;64924;42.140;24.762;2023-02-12T07:16:54;100645.09;;;7.20;30.07
73870;BME280;64924;42.140;24.762;2023-02-12T07:19:19;100655.13;;;7.37;29.87
73870;BME280;64924;42.140;24.762;2023-02-12T07:21:45;100657.59;;;7.49;30.04
73870;BME280;64924;42.140;24.762;2023-02-12T07:24:12;100672.22;;;7.56;29.98
73870;BME280;64924;42.140;24.762;2023-02-12T07:26:38;100653.44;;;7.54;30.15
73870;BME280;64924;42.140;24.762;2023-02-12T07:29:04;100666.38;;;7.60;30.27
73870;BME280;64924;42.140;24.762;2023-02-12T07:31:30;100624.09;;;7.42;30.11
73870;BME280;64924;42.140;24.762;2023-02-12T07:33:57;100665.47;;;7.69;30.30
73870;BME280;64924;42.140;24.762;2023-02-12T07:36:25;100657.34;;;7.69;30.23
73870;BME280;64924;42.140;24.762;2023-02-12T07:38:51;100663.75;;;7.86;30.22
73870;BME280;64924;42.140;24.762;2023-02-12T07:41:22;100668.41;;;7.94;29.98
73870;BME280;64924;42.140;24.762;2023-02-12T07:43:52;100668.19;;;8.05;29.85
73870;BME280;64924;42.140;24.762;2023-02-12T07:46:25;100672.72;;;7.87;30.17
73870;BME280;64924;42.140;24.762;2023-02-12T07:48:54;100674.97;;;7.91;30.07
73870;BME280;64924;42.140;24.762;2023-02-12T07:51:20;100681.16;;;8.01;30.07
73870;BME280;64924;42.140;24.762;2023-02-12T07:53:47;100686.66;;;8.10;30.21
73870;BME280;64924;42.140;24.762;2023-02-12T07:56:24;100649.94;;;7.89;29.97
73870;BME280;64924;42.140;24.762;2023-02-12T07:58:53;100689.44;;;8.18;29.96
73870;BME280;64924;42.140;24.762;2023-02-12T08:01:20;100684.72;;;8.20;29.94
73870;BME280;64924;42.140;24.762;2023-02-12T08:03:47;100694.06;;;8.25;30.07
73870;BME280;64924;42.140;24.762;2023-02-12T08:06:21;100695.03;;;8.34;29.81
73870;BME280;64924;42.140;24.762;2023-02-12T08:08:50;100700.13;;;8.37;29.84
73870;BME280;64924;42.140;24.762;2023-02-12T08:11:16;100690.66;;;8.23;30.09
73870;BME280;64924;42.140;24.762;2023-02-12T08:13:43;100704.44;;;8.30;30.22
73870;BME280;64924;42.140;24.762;2023-02-12T08:16:14;100711.81;;;8.37;30.03
73870;BME280;64924;42.140;24.762;2023-02-12T08:18:40;100698.31;;;8.28;30.17
73870;BME280;64924;42.140;24.762;2023-02-12T08:21:08;100715.41;;;8.28;30.54
73870;BME280;64924;42.140;24.762;2023-02-12T08:23:34;100723.09;;;8.33;30.39
73870;BME280;64924;42.140;24.762;2023-02-12T08:26:11;100674.84;;;8.11;30.57
73870;BME280;64924;42.140;24.762;2023-02-12T08:28:40;100724.53;;;8.27;30.68
73870;BME280;64924;42.140;24.762;2023-02-12T08:31:09;100728.09;;;8.28;30.96
73870;BME280;64924;42.140;24.762;2023-02-12T08:33:35;100728.81;;;8.30;31.07
73870;BME280;64924;42.140;24.762;2023-02-12T08:36:09;100697.53;;;8.18;31.08
73870;BME280;64924;42.140;24.762;2023-02-12T08:38:36;100726.50;;;8.35;31.43
73870;BME280;64924;42.140;24.762;2023-02-12T08:41:15;100740.13;;;8.43;32.16
73870;BME280;64924;42.140;24.762;2023-02-12T08:43:42;100748.09;;;8.45;32.47
73870;BME280;64924;42.140;24.762;2023-02-12T08:48:35;100747.13;;;8.71;32.88
73870;BME280;64924;42.140;24.762;2023-02-12T08:53:35;100712.66;;;9.08;32.45
73870;BME280;64924;42.140;24.762;2023-02-12T08:56:01;100755.06;;;9.43;32.20
73870;BME280;64924;42.140;24.762;2023-02-12T08:58:27;100719.09;;;9.41;32.04
73870;BME280;64924;42.140;24.762;2023-02-12T09:00:52;100755.50;;;9.64;32.26
73870;BME280;64924;42.140;24.762;2023-02-12T09:03:18;100741.38;;;9.52;32.60
73870;BME280;64924;42.140;24.762;2023-02-12T09:05:43;100750.91;;;9.30;32.80
73870;BME280;64924;42.140;24.762;2023-02-12T09:08:09;100754.41;;;9.15;33.16
73870;BME280;64924;42.140;24.762;2023-02-12T09:10:38;100754.06;;;9.18;33.22
73870;BME280;64924;42.140;24.762;2023-02-12T09:13:05;100751.00;;;8.87;33.58
73870;BME280;64924;42.140;24.762;2023-02-12T09:15:35;100761.56;;;8.98;33.75
73870;BME280;64924;42.140;24.762;2023-02-12T09:18:00;100767.88;;;9.07;33.62
73870;BME280;64924;42.140;24.762;2023-02-12T09:20:28;100764.72;;;9.11;33.54
73870;BME280;64924;42.140;24.762;2023-02-12T09:22:55;100769.19;;;9.28;33.18
73870;BME280;64924;42.140;24.762;2023-02-12T09:25:20;100733.41;;;9.17;33.22
73870;BME280;64924;42.140;24.762;2023-02-12T09:27:46;100776.66;;;9.52;32.97
73870;BME280;64924;42.140;24.762;2023-02-12T09:30:11;100772.81;;;9.63;33.27
73870;BME280;64924;42.140;24.762;2023-02-12T09:32:37;100771.81;;;9.72;32.79
73870;BME280;64924;42.140;24.762;2023-02-12T09:35:03;100763.38;;;9.83;32.84
73870;BME280;64924;42.140;24.762;2023-02-12T09:37:28;100764.94;;;9.94;32.87
73870;BME280;64924;42.140;24.762;2023-02-12T09:39:54;100765.06;;;9.84;33.00
73870;BME280;64924;42.140;24.762;2023-02-12T09:45:29;100777.91;;;10.16;32.62
73870;BME280;64924;42.140;24.762;2023-02-12T09:53:03;100779.38;;;9.94;32.61
73870;BME280;64924;42.140;24.762;2023-02-12T09:55:32;100772.91;;;9.87;32.62
73870;BME280;64924;42.140;24.762;2023-02-12T09:58:01;100781.78;;;10.14;32.40
73870;BME280;64924;42.140;24.762;2023-02-12T10:00:31;100773.47;;;10.15;32.64
73870;BME280;64924;42.140;24.762;2023-02-12T10:03:01;100774.00;;;10.19;32.30
73870;BME280;64924;42.140;24.762;2023-02-12T10:05:32;100750.28;;;10.21;31.86
73870;BME280;64924;42.140;24.762;2023-02-12T10:11:00;100765.28;;;10.65;31.77
73870;BME280;64924;42.140;24.762;2023-02-12T10:25:27;100744.81;;;11.18;29.49
73870;BME280;64924;42.140;24.762;2023-02-12T10:27:59;100753.97;;;11.33;29.30
73870;BME280;64924;42.140;24.762;2023-02-12T10:30:30;100747.94;;;11.54;29.20
73870;BME280;64924;42.140;24.762;2023-02-12T10:33:02;100738.84;;;11.39;29.13
73870;BME280;64924;42.140;24.762;2023-02-12T10:35:30;100735.41;;;11.45;28.97
73870;BME280;64924;42.140;24.762;2023-02-12T10:38:00;100761.34;;;11.64;28.73
73870;BME280;64924;42.140;24.762;2023-02-12T10:40:33;100752.16;;;11.81;28.80
73870;BME280;64924;42.140;24.762;2023-02-12T10:43:01;100755.31;;;11.93;28.89
73870;BME280;64924;42.140;24.762;2023-02-12T10:45:33;100701.38;;;11.88;28.51
73870;BME280;64924;42.140;24.762;2023-02-12T10:53:31;100753.31;;;12.18;29.26
73870;BME280;64924;42.140;24.762;2023-02-12T10:56:14;100752.59;;;12.24;29.23
73870;BME280;64924;42.140;24.762;2023-02-12T10:58:50;100748.50;;;11.89;29.75
73870;BME280;64924;42.140;24.762;2023-02-12T11:01:37;100753.53;;;11.77;29.82
73870;BME280;64924;42.140;24.762;2023-02-12T11:04:29;100753.13;;;11.88;29.36
73870;BME280;64924;42.140;24.762;2023-02-12T11:06:57;100760.25;;;11.89;29.10
73870;BME280;64924;42.140;24.762;2023-02-12T11:09:33;100763.94;;;12.04;29.02
73870;BME280;64924;42.140;24.762;2023-02-12T11:12:00;100768.75;;;11.94;28.76
73870;BME280;64924;42.140;24.762;2023-02-12T11:14:27;100764.63;;;11.98;29.05
73870;BME280;64924;42.140;24.762;2023-02-12T11:16:55;100766.00;;;12.02;28.48
73870;BME280;64924;42.140;24.762;2023-02-12T11:19:29;100756.66;;;11.97;28.65
73870;BME280;64924;42.140;24.762;2023-02-12T11:22:14;100763.19;;;12.19;28.46
73870;BME280;64924;42.140;24.762;2023-02-12T11:24:44;100769.41;;;11.96;28.84
73870;BME280;64924;42.140;24.762;2023-02-12T11:27:20;100767.88;;;12.02;28.73
73870;BME280;64924;42.140;24.762;2023-02-12T11:30:03;100762.97;;;11.89;28.64
73870;BME280;64924;42.140;24.762;2023-02-12T11:32:28;100773.94;;;11.81;28.83
73870;BME280;64924;42.140;24.762;2023-02-12T11:35:12;100776.06;;;11.94;28.49
73870;BME280;64924;42.140;24.762;2023-02-12T11:37:42;100767.81;;;12.10;28.27
73870;BME280;64924;42.140;24.762;2023-02-12T11:40:20;100755.72;;;12.13;28.12
73870;BME280;64924;42.140;24.762;2023-02-12T11:42:53;100773.16;;;12.26;28.05
73870;BME280;64924;42.140;24.762;2023-02-12T11:45:21;100763.09;;;12.04;28.45
73870;BME280;64924;42.140;24.762;2023-02-12T11:47:50;100773.78;;;12.14;28.11
73870;BME280;64924;42.140;24.762;2023-02-12T11:52:48;100773.94;;;11.81;28.72
73870;BME280;64924;42.140;24.762;2023-02-12T11:55:27;100761.00;;;11.83;28.55
73870;BME280;64924;42.140;24.762;2023-02-12T11:58:12;100764.00;;;11.88;28.62
73870;BME280;64924;42.140;24.762;2023-02-12T12:08:38;100763.44;;;12.01;28.55
73870;BME280;64924;42.140;24.762;2023-02-12T12:14:23;100777.69;;;11.80;29.16
73870;BME280;64924;42.140;24.762;2023-02-12T12:16:54;100771.97;;;11.98;29.09
73870;BME280;64924;42.140;24.762;2023-02-12T12:19:55;100741.50;;;11.94;28.87
73870;BME280;64924;42.140;24.762;2023-02-12T12:23:00;100773.97;;;12.04;28.78
73870;BME280;64924;42.140;24.762;2023-02-12T12:25:45;100778.28;;;11.90;28.96
73870;BME280;64924;42.140;24.762;2023-02-12T12:31:03;100775.97;;;11.71;29.16
73870;BME280;64924;42.140;24.762;2023-02-12T12:38:59;100802.69;;;11.84;29.21
73870;BME280;64924;42.140;24.762;2023-02-12T12:47:41;100809.75;;;11.46;29.50
73870;BME280;64924;42.140;24.762;2023-02-12T12:50:18;100818.59;;;11.23;30.00
73870;BME280;64924;42.140;24.762;2023-02-12T13:01:14;100808.22;;;11.27;30.45
73870;BME280;64924;42.140;24.762;2023-02-12T13:06:54;100788.69;;;11.15;29.96
73870;BME280;64924;42.140;24.762;2023-02-12T13:14:58;100818.53;;;11.56;29.62
73870;BME280;64924;42.140;24.762;2023-02-12T13:17:41;100827.94;;;11.45;30.21
73870;BME280;64924;42.140;24.762;2023-02-12T13:23:06;100834.19;;;11.62;29.82
73870;BME280;64924;42.140;24.762;2023-02-12T13:25:39;100841.03;;;11.50;29.81
73870;BME280;64924;42.140;24.762;2023-02-12T13:28:14;100841.66;;;11.60;29.81
73870;BME280;64924;42.140;24.762;2023-02-12T13:30:49;100841.81;;;11.66;29.76
73870;BME280;64924;42.140;24.762;2023-02-12T13:33:26;100851.69;;;11.76;29.57
73870;BME280;64924;42.140;24.762;2023-02-12T13:35:59;100846.09;;;11.77;29.44
73870;BME280;64924;42.140;24.762;2023-02-12T13:38:36;100849.31;;;11.64;29.40
73870;BME280;64924;42.140;24.762;2023-02-12T13:41:06;100850.84;;;11.59;29.48
73870;BME280;64924;42.140;24.762;2023-02-12T13:46:36;100853.06;;;11.55;29.30
73870;BME280;64924;42.140;24.762;2023-02-12T13:51:46;100842.22;;;11.47;29.43
73870;BME280;64924;42.140;24.762;2023-02-12T13:56:49;100843.25;;;11.22;30.14
73870;BME280;64924;42.140;24.762;2023-02-12T14:01:58;100874.03;;;11.30;30.37
73870;BME280;64924;42.140;24.762;2023-02-12T14:04:30;100864.84;;;11.31;30.35
73870;BME280;64924;42.140;24.762;2023-02-12T14:06:59;100877.44;;;11.32;30.38
73870;BME280;64924;42.140;24.762;2023-02-12T14:09:58;100866.56;;;11.32;30.12
73870;BME280;64924;42.140;24.762;2023-02-12T14:14:53;100880.84;;;11.26;30.28
73870;BME280;64924;42.140;24.762;2023-02-12T14:35:40;100931.50;;;11.19;31.45
73870;BME280;64924;42.140;24.762;2023-02-12T14:40:45;100926.72;;;10.97;32.04
73870;BME280;64924;42.140;24.762;2023-02-12T14:43:24;100942.56;;;11.10;31.87
73870;BME280;64924;42.140;24.762;2023-02-12T14:45:51;100950.50;;;10.95;32.28
73870;BME280;64924;42.140;24.762;2023-02-12T14:51:20;100965.78;;;10.88;32.64
73870;BME280;64924;42.140;24.762;2023-02-12T14:53:48;100963.03;;;10.71;32.58
73870;BME280;64924;42.140;24.762;2023-02-12T14:56:19;100976.97;;;10.77;32.70
73870;BME280;64924;42.140;24.762;2023-02-12T14:58:47;100979.63;;;10.60;33.38
73870;BME280;64924;42.140;24.762;2023-02-12T15:01:12;100978.69;;;10.44;33.24
73870;BME280;64924;42.140;24.762;2023-02-12T15:03:51;100955.22;;;10.34;33.31
73870;BME280;64924;42.140;24.762;2023-02-12T15:06:20;100997.53;;;10.45;33.43
73870;BME280;64924;42.140;24.762;2023-02-12T15:08:54;101006.38;;;10.39;33.50
73870;BME280;64924;42.140;24.762;2023-02-12T15:11:27;100999.19;;;10.30;33.64
73870;BME280;64924;42.140;24.762;2023-02-12T15:19:19;101026.50;;;10.11;34.10
73870;BME280;64924;42.140;24.762;2023-02-12T15:21:45;101043.78;;;10.01;34.20
73870;BME280;64924;42.140;24.762;2023-02-12T15:24:13;101041.69;;;9.95;34.47
73870;BME280;64924;42.140;24.762;2023-02-12T15:26:53;101034.28;;;10.05;34.09
73870;BME280;64924;42.140;24.762;2023-02-12T15:29:32;101034.97;;;10.07;34.26
73870;BME280;64924;42.140;24.762;2023-02-12T15:32:05;101053.78;;;10.01;34.57
73870;BME280;64924;42.140;24.762;2023-02-12T15:34:33;101045.41;;;9.94;34.44
73870;BME280;64924;42.140;24.762;2023-02-12T15:37:03;101060.31;;;9.90;34.92
73870;BME280;64924;42.140;24.762;2023-02-12T15:39:44;101061.44;;;10.05;34.27
73870;BME280;64924;42.140;24.762;2023-02-12T15:42:33;101070.06;;;10.01;34.69
73870;BME280;64924;42.140;24.762;2023-02-12T15:45:19;101070.47;;;9.88;34.68
73870;BME280;64924;42.140;24.762;2023-02-12T15:47:58;101083.03;;;9.89;35.08
73870;BME280;64924;42.140;24.762;2023-02-12T15:50:25;101073.41;;;9.77;35.00